createdAt,value
2022-09-13T00:02:06.957Z,3.03
2022-09-13T00:04:33.955Z,3.13
2022-09-13T00:07:05.529Z,3.60
2022-09-13T00:09:32.306Z,3.55
2022-09-13T00:11:59.320Z,3.00
2022-09-13T00:14:26.850Z,3.30
2022-09-13T00:16:54.707Z,2.88
2022-09-13T00:19:21.510Z,2.88
2022-09-13T00:21:48.759Z,2.47
2022-09-13T00:24:15.960Z,3.10
2022-09-13T00:26:42.708Z,2.42
2022-09-13T00:29:09.580Z,2.80
2022-09-13T00:31:36.453Z,2.50
2022-09-13T00:34:03.359Z,1.98
2022-09-13T00:36:30.172Z,2.03
2022-09-13T00:38:57.196Z,2.40
2022-09-13T00:41:24.062Z,1.52
2022-09-13T00:43:53.463Z,1.95
2022-09-13T00:46:31.097Z,2.08
2022-09-13T00:49:24.462Z,2.00
2022-09-13T00:51:59.171Z,2.05
2022-09-13T00:54:32.019Z,1.98
2022-09-13T00:57:02.682Z,1.73
2022-09-13T00:59:59.898Z,1.88
2022-09-13T01:02:28.922Z,1.73
2022-09-13T01:04:56.431Z,1.52
2022-09-13T01:07:23.226Z,1.52
2022-09-13T01:09:52.466Z,1.33
2022-09-13T01:12:40.507Z,1.52
2022-09-13T01:15:08.217Z,1.50
2022-09-13T01:17:36.380Z,1.65
2022-09-13T01:20:05.249Z,1.88
2022-09-13T01:23:09.522Z,1.30
2022-09-13T01:26:17.821Z,1.90
2022-09-13T01:29:09.926Z,2.00
2022-09-13T01:31:49.005Z,1.55
2022-09-13T01:35:04.055Z,1.90
2022-09-13T01:38:03.276Z,1.80
2022-09-13T01:41:06.226Z,1.98
2022-09-13T01:43:43.293Z,1.95
2022-09-13T01:46:28.839Z,1.83
2022-09-13T01:49:13.343Z,2.13
2022-09-13T01:51:50.230Z,2.05
2022-09-13T01:54:35.232Z,1.90
2022-09-13T01:57:32.030Z,1.60
2022-09-13T02:00:13.578Z,1.50
2022-09-13T02:02:42.650Z,1.67
2022-09-13T02:05:20.542Z,1.35
2022-09-13T02:07:58.394Z,1.70
2022-09-13T02:10:36.475Z,1.80
2022-09-13T02:13:11.404Z,1.67
2022-09-13T02:15:50.227Z,2.58
2022-09-13T02:18:33.705Z,1.60
2022-09-13T02:21:12.604Z,1.88
2022-09-13T02:23:49.321Z,1.92
2022-09-13T02:26:16.974Z,1.98
2022-09-13T02:28:55.239Z,2.03
2022-09-13T02:31:33.888Z,2.05
2022-09-13T02:34:07.948Z,2.22
2022-09-13T02:36:40.827Z,1.95
2022-09-13T02:39:17.521Z,2.55
2022-09-13T02:41:53.956Z,2.70
2022-09-13T02:44:34.384Z,3.42
2022-09-13T02:47:22.808Z,3.47
2022-09-13T02:50:19.720Z,3.15
2022-09-13T02:53:28.658Z,2.75
2022-09-13T02:56:19.141Z,3.03
2022-09-13T02:58:50.783Z,3.00
2022-09-13T03:01:17.731Z,2.63
2022-09-13T03:03:45.176Z,2.80
2022-09-13T03:06:11.994Z,2.40
2022-09-13T03:08:38.965Z,2.13
2022-09-13T03:11:18.763Z,2.20
2022-09-13T03:14:04.098Z,2.35
2022-09-13T03:16:42.853Z,2.33
2022-09-13T03:19:26.605Z,2.20
2022-09-13T03:21:59.527Z,1.80
2022-09-13T03:24:51.490Z,2.25
2022-09-13T03:27:37.716Z,2.13
2022-09-13T03:30:15.516Z,2.08
2022-09-13T03:32:47.014Z,2.33
2022-09-13T03:35:48.994Z,1.90
2022-09-13T03:38:32.159Z,2.13
2022-09-13T03:41:18.938Z,2.10
2022-09-13T03:43:58.890Z,2.40
2022-09-13T03:46:49.004Z,2.33
2022-09-13T03:49:18.690Z,2.38
2022-09-13T03:51:49.296Z,2.47
2022-09-13T03:54:30.197Z,2.10
2022-09-13T03:57:26.318Z,2.50
2022-09-13T03:59:58.871Z,2.70
2022-09-13T04:02:27.045Z,2.50
2022-09-13T04:04:53.999Z,2.10
2022-09-13T04:07:24.279Z,2.35
2022-09-13T04:09:51.191Z,2.30
2022-09-13T04:12:19.280Z,2.38
2022-09-13T04:14:46.521Z,2.13
2022-09-13T04:17:14.115Z,2.78
2022-09-13T04:19:41.700Z,2.92
2022-09-13T04:22:08.602Z,2.97
2022-09-13T04:24:36.530Z,2.60
2022-09-13T04:27:05.229Z,2.35
2022-09-13T04:29:33.257Z,2.90
2022-09-13T04:32:00.704Z,2.92
2022-09-13T04:34:28.206Z,2.83
2022-09-13T04:36:55.254Z,2.55
2022-09-13T04:39:23.980Z,2.72
2022-09-13T04:41:52.547Z,2.80
2022-09-13T04:44:20.678Z,3.95
2022-09-13T04:46:49.266Z,3.08
2022-09-13T04:49:18.004Z,4.38
2022-09-13T04:51:45.172Z,3.47
2022-09-13T04:54:15.673Z,4.07
2022-09-13T04:56:44.467Z,3.83
2022-09-13T04:59:12.301Z,4.97
2022-09-13T05:01:39.875Z,5.05
2022-09-13T05:04:08.876Z,4.93
2022-09-13T05:06:36.304Z,4.40
2022-09-13T05:09:03.765Z,4.30
2022-09-13T05:11:30.699Z,4.60
2022-09-13T05:14:00.522Z,4.18
2022-09-13T05:16:30.990Z,4.72
2022-09-13T05:18:58.491Z,4.40
2022-09-13T05:21:28.062Z,4.82
2022-09-13T05:23:56.467Z,4.10
2022-09-13T05:26:26.430Z,4.38
2022-09-13T05:28:53.760Z,4.90
2022-09-13T05:31:32.054Z,4.32
2022-09-13T05:34:17.759Z,4.47
2022-09-13T05:36:44.872Z,4.60
2022-09-13T05:39:36.538Z,5.15
2022-09-13T05:42:09.181Z,4.40
2022-09-13T05:44:35.949Z,4.45
2022-09-13T05:47:02.700Z,4.28
2022-09-13T05:49:29.612Z,4.07
2022-09-13T05:51:56.355Z,5.35
2022-09-13T05:54:23.116Z,4.97
2022-09-13T05:56:52.658Z,4.90
2022-09-13T05:59:19.416Z,5.30
2022-09-13T06:01:46.444Z,4.78
2022-09-13T06:04:13.264Z,4.63
2022-09-13T06:06:40.217Z,5.00
2022-09-13T06:09:08.803Z,5.65
2022-09-13T06:11:35.531Z,5.55
2022-09-13T06:14:02.469Z,5.85
2022-09-13T06:16:29.277Z,5.93
2022-09-13T06:18:56.206Z,5.75
2022-09-13T06:21:28.303Z,6.15
2022-09-13T06:23:55.919Z,5.88
2022-09-13T06:26:26.743Z,5.53
2022-09-13T06:28:56.486Z,5.85
2022-09-13T06:31:25.871Z,6.00
2022-09-13T06:34:03.176Z,6.28
2022-09-13T06:36:31.302Z,6.95
2022-09-13T06:39:00.730Z,6.13
2022-09-13T06:41:28.254Z,6.90
2022-09-13T06:43:58.876Z,5.82
2022-09-13T06:46:30.413Z,5.35
2022-09-13T06:49:05.219Z,5.85
2022-09-13T06:51:34.079Z,6.05
2022-09-13T06:54:01.466Z,6.90
2022-09-13T06:56:37.860Z,5.70
2022-09-13T06:59:07.867Z,5.57
2022-09-13T07:01:41.632Z,5.80
2022-09-13T07:04:14.150Z,5.32
2022-09-13T07:06:48.037Z,5.40
2022-09-13T07:09:18.991Z,5.38
2022-09-13T07:11:47.613Z,6.30
2022-09-13T07:14:18.398Z,6.65
2022-09-13T07:16:46.874Z,6.13
2022-09-13T07:19:20.579Z,5.25
2022-09-13T07:21:49.004Z,5.60
2022-09-13T07:24:17.694Z,6.25
2022-09-13T07:26:45.518Z,6.45
2022-09-13T07:29:19.509Z,6.63
2022-09-13T07:31:49.256Z,6.95
2022-09-13T07:34:25.692Z,6.35
2022-09-13T07:36:53.000Z,6.22
2022-09-13T07:39:22.699Z,5.97
2022-09-13T07:41:51.043Z,6.25
2022-09-13T07:44:18.159Z,5.35
2022-09-13T07:46:44.999Z,5.47
2022-09-13T07:49:19.072Z,5.45
2022-09-13T07:51:46.159Z,5.80
2022-09-13T07:54:17.778Z,5.75
2022-09-13T07:56:45.920Z,4.53
2022-09-13T07:59:15.897Z,5.30
2022-09-13T08:01:49.399Z,4.85
2022-09-13T08:04:21.362Z,5.32
2022-09-13T08:06:48.486Z,5.13
2022-09-13T08:09:16.584Z,4.60
2022-09-13T08:11:47.485Z,4.00
2022-09-13T08:14:18.102Z,3.92
2022-09-13T08:16:45.543Z,4.45
2022-09-13T08:19:18.349Z,4.05
2022-09-13T08:21:46.416Z,4.35
2022-09-13T08:24:20.074Z,3.92
2022-09-13T08:26:48.310Z,3.15
2022-09-13T08:29:16.327Z,3.58
2022-09-13T08:31:43.666Z,3.53
2022-09-13T08:34:16.052Z,3.45
2022-09-13T08:36:43.755Z,3.35
2022-09-13T08:39:13.854Z,3.78
2022-09-13T08:41:42.363Z,2.97
2022-09-13T08:44:56.376Z,3.28
2022-09-13T08:47:42.079Z,2.45
2022-09-13T08:50:21.812Z,2.78
2022-09-13T08:53:28.459Z,2.60
2022-09-13T08:56:12.976Z,2.30
2022-09-13T08:59:01.170Z,2.22
2022-09-13T09:01:47.121Z,1.90
2022-09-13T09:04:39.229Z,1.98
2022-09-13T09:07:15.756Z,1.77
2022-09-13T09:09:52.845Z,1.85
2022-09-13T09:12:41.767Z,1.65
2022-09-13T09:15:45.562Z,1.63
2022-09-13T09:18:12.399Z,1.50
2022-09-13T09:20:49.887Z,1.85
2022-09-13T09:23:41.015Z,1.48
2022-09-13T09:26:17.356Z,1.90
2022-09-13T09:28:51.140Z,2.00
2022-09-13T09:31:35.585Z,1.50
2022-09-13T09:34:43.152Z,1.90
2022-09-13T09:37:26.102Z,1.70
2022-09-13T09:39:56.279Z,1.80
2022-09-13T09:42:28.431Z,1.45
2022-09-13T09:45:06.015Z,1.60
2022-09-13T09:47:45.775Z,1.65
2022-09-13T09:50:22.793Z,2.08
2022-09-13T09:53:00.171Z,1.92
2022-09-13T09:55:33.735Z,1.88
2022-09-13T09:58:06.293Z,1.45
2022-09-13T10:00:37.916Z,1.65
2022-09-13T10:03:17.726Z,1.50
2022-09-13T10:05:44.863Z,2.00
2022-09-13T10:08:40.190Z,1.75
2022-09-13T10:11:08.211Z,1.75
2022-09-13T10:13:38.452Z,1.67
2022-09-13T10:16:26.649Z,1.70
2022-09-13T10:18:53.719Z,1.60
2022-09-13T10:21:26.295Z,1.58
2022-09-13T10:24:17.907Z,1.35
2022-09-13T10:26:45.856Z,1.88
2022-09-13T10:29:17.843Z,1.42
2022-09-13T10:31:47.932Z,1.65
2022-09-13T10:34:22.692Z,1.25
2022-09-13T10:37:06.889Z,1.10
2022-09-13T10:39:37.047Z,1.52
2022-09-13T10:42:08.840Z,1.42
2022-09-13T10:44:57.040Z,1.10
2022-09-13T10:47:34.731Z,1.20
2022-09-13T10:50:26.848Z,1.48
2022-09-13T10:52:56.644Z,1.50
2022-09-13T10:55:24.719Z,1.60
2022-09-13T10:57:57.688Z,1.88
2022-09-13T11:00:36.773Z,1.50
2022-09-13T11:03:45.820Z,1.42
2022-09-13T11:06:36.816Z,2.75
2022-09-13T11:09:20.271Z,1.30
2022-09-13T11:12:20.608Z,1.42
2022-09-13T11:15:20.813Z,1.17
2022-09-13T11:18:16.764Z,1.27
2022-09-13T11:24:11.671Z,1.30
2022-09-13T11:26:47.459Z,1.40
2022-09-13T11:29:41.176Z,1.20
2022-09-13T11:32:07.959Z,1.35
2022-09-13T11:34:55.143Z,1.77
2022-09-13T11:37:37.115Z,1.35
2022-09-13T11:40:23.310Z,1.40
2022-09-13T11:43:00.259Z,1.38
2022-09-13T11:45:40.475Z,1.30
2022-09-13T11:48:32.053Z,1.20
2022-09-13T11:51:30.146Z,2.13
2022-09-13T11:54:20.531Z,1.17
2022-09-13T11:56:54.573Z,1.80
2022-09-13T11:59:38.864Z,1.75
2022-09-13T12:02:24.677Z,1.50
2022-09-13T12:08:18.780Z,1.80
2022-09-13T12:11:04.240Z,1.50
2022-09-13T12:16:10.145Z,1.60
2022-09-13T12:18:44.831Z,1.73
2022-09-13T12:21:24.188Z,1.75
2022-09-13T12:24:23.939Z,1.50
2022-09-13T12:27:01.109Z,1.52
2022-09-13T12:29:49.286Z,1.35
2022-09-13T12:32:18.024Z,1.48
2022-09-13T12:35:09.518Z,1.20
2022-09-13T12:37:51.392Z,1.70
2022-09-13T12:40:49.406Z,1.60
2022-09-13T12:43:52.300Z,1.33
2022-09-13T12:46:55.919Z,1.10
2022-09-13T12:49:43.852Z,1.58
2022-09-13T12:52:44.461Z,1.35
2022-09-13T12:55:52.143Z,1.40
2022-09-13T12:58:46.326Z,1.40
2022-09-13T13:01:20.452Z,1.33
2022-09-13T13:03:56.298Z,1.70
2022-09-13T13:06:39.714Z,1.65
2022-09-13T13:09:33.223Z,1.77
2022-09-13T13:12:00.844Z,1.95
2022-09-13T13:14:39.788Z,1.70
2022-09-13T13:17:51.199Z,1.52
2022-09-13T13:20:51.996Z,1.27
2022-09-13T13:23:35.589Z,1.58
2022-09-13T13:26:57.698Z,1.40
2022-09-13T13:29:32.383Z,1.40
2022-09-13T13:32:02.695Z,1.45
2022-09-13T13:34:44.820Z,1.90
2022-09-13T13:37:11.517Z,1.73
2022-09-13T13:39:48.572Z,1.50
2022-09-13T13:42:38.385Z,1.50
2022-09-13T13:45:07.736Z,1.50
2022-09-13T13:47:34.607Z,1.40
2022-09-13T13:50:17.367Z,1.52
2022-09-13T13:52:47.212Z,1.65
2022-09-13T13:55:39.320Z,1.70
2022-09-13T13:58:30.852Z,1.50
2022-09-13T14:01:02.252Z,1.83
2022-09-13T14:03:43.106Z,1.80
2022-09-13T14:06:25.152Z,1.63
2022-09-13T14:09:13.154Z,1.70
2022-09-13T14:11:51.945Z,1.88
2022-09-13T14:14:43.632Z,1.80
2022-09-13T14:18:00.001Z,1.70
2022-09-13T14:20:26.889Z,1.88
2022-09-13T14:23:21.240Z,1.55
2022-09-13T14:25:56.028Z,1.60
2022-09-13T14:28:24.094Z,1.70
2022-09-13T14:30:58.531Z,2.00
2022-09-13T14:33:36.412Z,1.92
2022-09-13T14:36:18.131Z,2.15
2022-09-13T14:39:00.152Z,1.70
2022-09-13T14:41:37.730Z,1.73
2022-09-13T14:44:29.052Z,1.92
2022-09-13T14:47:29.248Z,1.85
2022-09-13T14:50:07.226Z,1.55
2022-09-13T14:52:49.438Z,1.70
2022-09-13T14:55:22.406Z,1.75
2022-09-13T14:57:54.891Z,1.50
2022-09-13T15:00:24.519Z,1.85
2022-09-13T15:03:10.848Z,1.90
2022-09-13T15:05:37.870Z,1.70
2022-09-13T15:08:33.323Z,1.48
2022-09-13T15:11:02.708Z,1.77
2022-09-13T15:13:29.758Z,1.50
2022-09-13T15:15:56.544Z,1.60
2022-09-13T15:18:36.270Z,1.52
2022-09-13T15:21:16.023Z,1.88
2022-09-13T15:23:50.141Z,1.45
2022-09-13T15:26:23.927Z,1.75
2022-09-13T15:28:54.464Z,1.40
2022-09-13T15:31:27.970Z,1.65
2022-09-13T15:34:20.566Z,1.38
2022-09-13T15:37:08.936Z,1.40
2022-09-13T15:39:53.816Z,1.20
2022-09-13T15:42:20.762Z,1.63
2022-09-13T15:44:47.639Z,1.30
2022-09-13T15:47:18.922Z,1.45
2022-09-13T15:49:52.443Z,1.40
2022-09-13T15:52:20.687Z,1.58
2022-09-13T15:54:50.542Z,1.52
2022-09-13T15:57:23.688Z,1.10
2022-09-13T15:59:51.024Z,1.20
2022-09-13T16:02:19.662Z,1.85
2022-09-13T16:04:47.114Z,1.13
2022-09-13T16:07:14.768Z,1.40
2022-09-13T16:09:41.618Z,1.20
2022-09-13T16:12:09.151Z,1.50
2022-09-13T16:14:35.941Z,1.52
2022-09-13T16:17:24.737Z,1.45
2022-09-13T16:19:53.100Z,1.30
2022-09-13T16:22:20.507Z,1.35
2022-09-13T16:24:47.922Z,1.70
2022-09-13T16:27:17.361Z,1.60
2022-09-13T16:29:44.355Z,1.73
2022-09-13T16:32:11.624Z,1.92
2022-09-13T16:34:39.617Z,2.38
2022-09-13T16:37:06.474Z,1.95
2022-09-13T16:39:33.249Z,2.08
2022-09-13T16:42:00.043Z,2.00
2022-09-13T16:44:26.786Z,2.20
2022-09-13T16:46:53.623Z,1.67
2022-09-13T16:49:20.795Z,1.77
2022-09-13T16:51:47.567Z,1.92
2022-09-13T16:54:14.348Z,1.48
2022-09-13T16:56:41.542Z,1.50
2022-09-13T16:59:08.438Z,1.45
2022-09-13T17:01:36.015Z,1.42
2022-09-13T17:04:03.655Z,1.50
2022-09-13T17:06:30.485Z,1.52
2022-09-13T17:09:01.768Z,1.60
2022-09-13T17:11:33.414Z,1.90
2022-09-13T17:14:02.301Z,2.40
2022-09-13T17:16:34.093Z,2.55
2022-09-13T17:19:04.761Z,2.50
2022-09-13T17:21:33.907Z,2.10
2022-09-13T17:24:02.344Z,1.80
2022-09-13T17:26:29.243Z,2.00
2022-09-13T17:28:56.155Z,2.00
2022-09-13T17:31:23.000Z,1.80
2022-09-13T17:33:50.272Z,1.73
2022-09-13T17:36:17.403Z,1.90
2022-09-13T17:38:44.467Z,1.70
2022-09-13T17:41:18.271Z,2.10
2022-09-13T17:43:47.003Z,2.20
2022-09-13T17:46:23.798Z,1.50
2022-09-13T17:48:53.525Z,2.00
2022-09-13T17:51:23.685Z,2.10
2022-09-13T17:53:54.489Z,1.90
2022-09-13T17:56:34.306Z,1.85
2022-09-13T17:59:17.588Z,2.13
2022-09-13T18:01:48.608Z,1.92
2022-09-13T18:04:19.041Z,1.88
2022-09-13T18:06:54.651Z,1.88
2022-09-13T18:09:22.007Z,1.90
2022-09-13T18:11:49.765Z,1.92
2022-09-13T18:14:18.645Z,1.90
2022-09-13T18:16:46.500Z,2.00
2022-09-13T18:19:13.795Z,1.88
2022-09-13T18:21:41.358Z,2.15
2022-09-13T18:24:08.471Z,1.80
2022-09-13T18:26:36.471Z,1.60
2022-09-13T18:29:07.405Z,1.92
2022-09-13T18:31:36.346Z,2.15
2022-09-13T18:34:13.055Z,2.20
2022-09-13T18:36:41.044Z,2.22
2022-09-13T18:39:15.264Z,1.88
2022-09-13T18:41:42.071Z,2.10
2022-09-13T18:44:12.533Z,2.72
2022-09-13T18:46:40.122Z,2.80
2022-09-13T18:49:07.978Z,2.30
2022-09-13T18:51:43.843Z,2.45
2022-09-13T18:54:17.846Z,2.58
2022-09-13T18:56:46.511Z,2.30
2022-09-13T18:59:14.003Z,2.47
2022-09-13T19:01:43.330Z,2.70
2022-09-13T19:04:19.622Z,2.58
2022-09-13T19:06:50.508Z,2.40
2022-09-13T19:09:20.095Z,2.40
2022-09-13T19:11:49.744Z,2.67
2022-09-13T19:14:27.286Z,2.60
2022-09-13T19:17:01.170Z,2.17
2022-09-13T19:19:29.123Z,2.45
2022-09-13T19:21:55.881Z,2.92
2022-09-13T19:24:22.907Z,2.13
2022-09-13T19:26:51.764Z,2.35
2022-09-13T19:29:23.452Z,2.45
2022-09-13T19:31:52.869Z,2.60
2022-09-13T19:34:22.188Z,2.60
2022-09-13T19:36:53.666Z,2.30
2022-09-13T19:39:20.481Z,2.90
2022-09-13T19:41:47.445Z,2.90
2022-09-13T19:44:14.874Z,3.40
2022-09-13T19:46:42.988Z,3.03
2022-09-13T19:49:14.719Z,3.63
2022-09-13T19:51:46.460Z,3.70
2022-09-13T19:54:17.188Z,4.35
2022-09-13T19:56:44.664Z,3.63
2022-09-13T19:59:16.026Z,3.00
2022-09-13T20:01:46.347Z,3.45
2022-09-13T20:04:17.516Z,3.10
2022-09-13T20:06:52.019Z,3.20
2022-09-13T20:09:20.908Z,3.38
2022-09-13T20:11:49.026Z,3.45
2022-09-13T20:14:19.016Z,3.80
2022-09-13T20:16:46.643Z,3.53
2022-09-13T20:22:09.953Z,3.67
2022-09-13T20:24:37.243Z,3.78
2022-09-13T20:27:04.760Z,2.92
2022-09-13T20:29:31.940Z,3.45
2022-09-13T20:31:59.807Z,3.08
2022-09-13T20:34:27.445Z,3.33
2022-09-13T20:36:54.186Z,3.28
2022-09-13T20:39:21.018Z,3.28
2022-09-13T20:41:49.458Z,3.05
2022-09-13T20:44:16.513Z,3.72
2022-09-13T20:46:43.721Z,3.63
2022-09-13T20:49:11.921Z,2.67
2022-09-13T20:51:38.993Z,2.13
2022-09-13T20:54:06.569Z,2.92
2022-09-13T20:56:34.658Z,3.08
2022-09-13T20:59:02.246Z,2.80
2022-09-13T21:01:31.613Z,2.33
2022-09-13T21:03:59.741Z,2.92
2022-09-13T21:06:30.350Z,2.80
2022-09-13T21:09:00.299Z,2.63
2022-09-13T21:11:35.136Z,2.47
2022-09-13T21:14:06.105Z,2.75
2022-09-13T21:16:36.351Z,2.72
2022-09-13T21:19:04.124Z,2.88
2022-09-13T21:21:38.535Z,2.40
2022-09-13T21:24:09.949Z,2.88
2022-09-13T21:26:42.269Z,2.50
2022-09-13T21:29:10.704Z,2.70
2022-09-13T21:31:38.195Z,2.35
2022-09-13T21:34:14.875Z,2.80
2022-09-13T21:36:42.286Z,3.05
2022-09-13T21:39:09.599Z,2.88
2022-09-13T21:41:36.903Z,2.90
2022-09-13T21:44:04.175Z,2.45
2022-09-13T21:46:35.251Z,1.98
2022-09-13T21:49:08.255Z,2.92
2022-09-13T21:51:47.375Z,3.00
2022-09-13T21:54:18.171Z,2.40
2022-09-13T21:56:51.548Z,2.70
2022-09-13T21:59:20.888Z,2.58
2022-09-13T22:01:51.538Z,2.40
2022-09-13T22:04:22.499Z,2.72
2022-09-13T22:06:54.486Z,2.75
2022-09-13T22:09:24.213Z,2.67
2022-09-13T22:11:50.984Z,2.63
2022-09-13T22:14:22.061Z,2.80
2022-09-13T22:16:49.920Z,2.72
2022-09-13T22:19:24.338Z,3.33
2022-09-13T22:22:01.478Z,2.93
2022-09-13T22:24:32.430Z,3.30
2022-09-13T22:26:59.374Z,2.60
2022-09-13T22:29:26.499Z,2.70
2022-09-13T22:31:53.648Z,3.35
2022-09-13T22:34:24.203Z,3.00
2022-09-13T22:36:51.160Z,3.17
2022-09-13T22:39:18.368Z,3.53
2022-09-13T22:41:45.661Z,4.00
2022-09-13T22:44:15.892Z,3.17
2022-09-13T22:46:46.824Z,3.80
2022-09-13T22:49:19.946Z,4.15
2022-09-13T22:51:48.255Z,3.92
2022-09-13T22:54:17.369Z,3.20
2022-09-13T22:56:44.639Z,4.22
2022-09-13T22:59:15.440Z,3.70
2022-09-13T23:01:42.876Z,3.78
2022-09-13T23:04:10.197Z,4.00
2022-09-13T23:06:37.397Z,4.47
2022-09-13T23:09:08.284Z,4.65
2022-09-13T23:11:40.121Z,3.92
2022-09-13T23:14:11.233Z,4.10
2022-09-13T23:16:49.226Z,3.92
2022-09-13T23:19:18.125Z,4.90
2022-09-13T23:21:45.274Z,4.65
2022-09-13T23:24:16.480Z,4.63
2022-09-13T23:26:44.989Z,4.55
2022-09-13T23:29:15.785Z,4.50
2022-09-13T23:31:43.570Z,4.75
2022-09-13T23:34:12.847Z,4.60
2022-09-13T23:36:42.492Z,4.75
2022-09-13T23:39:16.788Z,5.00
2022-09-13T23:41:46.487Z,4.82
2022-09-13T23:44:13.700Z,5.15
2022-09-13T23:46:41.432Z,4.60
2022-09-13T23:49:08.192Z,4.40
2022-09-13T23:51:35.099Z,5.57
2022-09-13T23:54:03.116Z,4.53
2022-09-13T23:56:31.722Z,4.93
2022-09-13T23:59:00.942Z,5.07
